Nichioh Maru — JD3267 — position and weather

sailwx.info

Track history (hours):
 
Tides and Currents Weather Stations Pressure Air Temp Water Temp Dewpoint Dewpoint Depression Visibility Wind Speed Wind Dir Waves Ship Positions

Nichioh Maru

Last reported at 2016-Jul-24 21:33 UTC. Time now 2016-Jul-24 22:23 UTC.
Position N 34°20' E 135°01'.

Length 170 m; draft 6.5 m.

Type: Cargo ship. MMSI: 431003232.

Date/timePositionNaut miles runAvg speedWind from/ knotsBaromVisibWave heightAir tempDewpointWater temp
2016-Jul-24 21:33N 34°20' E 135°01'2020.0
2016-Jul-24 20:34N 34°00' E 134°59'228 6.9
2016-Jul-23 11:33N 34°58' E 139°27'1515.4
2016-Jul-23 10:33N 35°07' E 139°42'1111.2
2016-Jul-23 09:33N 35°18' E 139°44'1312.6
2016-Jul-23 08:33N 35°30' E 139°46'0 0.2
2016-Jul-23 07:32N 35°30' E 139°46'0 0.0
2016-Jul-23 06:32N 35°30' E 139°46'0 0.0
2016-Jul-23 04:32N 35°30' E 139°46'0 0.0
2016-Jul-23 03:32N 35°30' E 139°46'1 1.1
2016-Jul-23 02:33N 35°30' E 139°45'9 9.1
2016-Jul-23 01:33N 35°21' E 139°45'5 5.0
2016-Jul-23 00:32N 35°19' E 139°39'0 0.0
2016-Jul-22 23:32N 35°19' E 139°39'0 0.0
2016-Jul-22 22:32N 35°19' E 139°39'8 8.0
2016-Jul-22 21:33N 35°14' E 139°47'1010.5
2016-Jul-22 20:33N 35°04' E 139°43'24114.1
2016-Jul-22 03:31N 34°08' E 134°59'1818.7
2016-Jul-22 02:33N 34°25' E 135°05'1716.8
2016-Jul-22 01:34N 34°40' E 135°15'2 1.8
2016-Jul-22 00:34N 34°41' E 135°13'0 0.0
2016-Jul-21 23:33N 34°41' E 135°13'1 1.2
2016-Jul-21 22:33N 34°40' E 135°15'9 8.8
2016-Jul-21 21:33N 34°32' E 135°13'8 8.4
2016-Jul-21 20:33N 34°25' E 135°06'1010.3
2016-Jul-21 19:33N 34°35' E 135°03'  
2016-Jul-18 02:22N 34°38' E 134°59'1315.6
2016-Jul-18 01:33N 34°37' E 135°15'4 3.5
2016-Jul-18 00:33N 34°41' E 135°13'0 0.0
2016-Jul-17 23:33N 34°41' E 135°13'2 1.8
2016-Jul-17 22:33N 34°40' E 135°15'1110.9
2016-Jul-17 21:33N 34°30' E 135°10'1514.9
2016-Jul-17 20:32N 34°17' E 134°59'1414.5
2016-Jul-17 19:33N 34°03' E 134°60'173 5.9
2016-Jul-16 14:12N 34°31' E 138°26'5313.8
2016-Jul-16 10:23N 34°54' E 139°24'1215.0
2016-Jul-16 09:33N 35°02' E 139°35'1514.6
2016-Jul-16 08:33N 35°14' E 139°46'1313.3
2016-Jul-16 07:34N 35°27' E 139°45'3 3.5
2016-Jul-16 06:33N 35°30' E 139°46'0 0.0
2016-Jul-16 04:33N 35°30' E 139°46'0 0.0
2016-Jul-16 03:33N 35°30' E 139°46'0 0.0
2016-Jul-16 02:33N 35°30' E 139°46'6 5.8
2016-Jul-16 01:34N 35°25' E 139°46'8 7.0
2016-Jul-16 00:22N 35°19' E 139°39'0 0.0
2016-Jul-15 23:31N 35°19' E 139°39'0 0.0
2016-Jul-15 22:29N 35°19' E 139°39'8 8.1
2016-Jul-15 21:33N 35°15' E 139°47'1110.5
2016-Jul-15 20:33N 35°05' E 139°42'24115.9
2016-Jul-15 05:23N 33°59' E 135°00'1619.6
2016-Jul-15 04:33N 34°15' E 134°59'1918.9
2016-Jul-15 03:33N 34°31' E 135°11'9 9.3
2016-Jul-15 02:32N 34°41' E 135°13'0 0.0
2016-Jul-15 01:32N 34°41' E 135°13'0 0.0
2016-Jul-15 00:20N 34°41' E 135°13'0 0.0
2016-Jul-14 23:20N 34°41' E 135°13'3 3.3
2016-Jul-14 22:34N 34°39' E 135°16'  
Track history (hours):
 
Tides and Currents Weather Stations Pressure Air Temp Water Temp Dewpoint Dewpoint Depression Visibility Wind Speed Wind Dir Waves Ship Positions

Nichioh Maru

Last reported at 2016-Jul-24 21:33 UTC. Time now 2016-Jul-24 22:23 UTC.
Position N 34°20' E 135°01'.

Length 170 m; draft 6.5 m.

Type: Cargo ship. MMSI: 431003232.

Date/timePositionNaut miles runAvg speedWind from/ knotsBaromVisibWave heightAir tempDewpointWater temp
2016-Jul-24 21:33N 34°20' E 135°01'2020.0
2016-Jul-24 20:34N 34°00' E 134°59'228 6.9
2016-Jul-23 11:33N 34°58' E 139°27'1515.4
2016-Jul-23 10:33N 35°07' E 139°42'1111.2
2016-Jul-23 09:33N 35°18' E 139°44'1312.6
2016-Jul-23 08:33N 35°30' E 139°46'0 0.2
2016-Jul-23 07:32N 35°30' E 139°46'0 0.0
2016-Jul-23 06:32N 35°30' E 139°46'0 0.0
2016-Jul-23 04:32N 35°30' E 139°46'0 0.0
2016-Jul-23 03:32N 35°30' E 139°46'1 1.1
2016-Jul-23 02:33N 35°30' E 139°45'9 9.1
2016-Jul-23 01:33N 35°21' E 139°45'5 5.0
2016-Jul-23 00:32N 35°19' E 139°39'0 0.0
2016-Jul-22 23:32N 35°19' E 139°39'0 0.0
2016-Jul-22 22:32N 35°19' E 139°39'8 8.0
2016-Jul-22 21:33N 35°14' E 139°47'1010.5
2016-Jul-22 20:33N 35°04' E 139°43'24114.1
2016-Jul-22 03:31N 34°08' E 134°59'1818.7
2016-Jul-22 02:33N 34°25' E 135°05'1716.8
2016-Jul-22 01:34N 34°40' E 135°15'2 1.8
2016-Jul-22 00:34N 34°41' E 135°13'0 0.0
2016-Jul-21 23:33N 34°41' E 135°13'1 1.2
2016-Jul-21 22:33N 34°40' E 135°15'9 8.8
2016-Jul-21 21:33N 34°32' E 135°13'8 8.4
2016-Jul-21 20:33N 34°25' E 135°06'1010.3
2016-Jul-21 19:33N 34°35' E 135°03'  
2016-Jul-18 02:22N 34°38' E 134°59'1315.6
2016-Jul-18 01:33N 34°37' E 135°15'4 3.5
2016-Jul-18 00:33N 34°41' E 135°13'0 0.0
2016-Jul-17 23:33N 34°41' E 135°13'2 1.8
2016-Jul-17 22:33N 34°40' E 135°15'1110.9
2016-Jul-17 21:33N 34°30' E 135°10'1514.9
2016-Jul-17 20:32N 34°17' E 134°59'1414.5
2016-Jul-17 19:33N 34°03' E 134°60'173 5.9
2016-Jul-16 14:12N 34°31' E 138°26'5313.8
2016-Jul-16 10:23N 34°54' E 139°24'1215.0
2016-Jul-16 09:33N 35°02' E 139°35'1514.6
2016-Jul-16 08:33N 35°14' E 139°46'1313.3
2016-Jul-16 07:34N 35°27' E 139°45'3 3.5
2016-Jul-16 06:33N 35°30' E 139°46'0 0.0
2016-Jul-16 04:33N 35°30' E 139°46'0 0.0
2016-Jul-16 03:33N 35°30' E 139°46'0 0.0
2016-Jul-16 02:33N 35°30' E 139°46'6 5.8
2016-Jul-16 01:34N 35°25' E 139°46'8 7.0
2016-Jul-16 00:22N 35°19' E 139°39'0 0.0
2016-Jul-15 23:31N 35°19' E 139°39'0 0.0
2016-Jul-15 22:29N 35°19' E 139°39'8 8.1
2016-Jul-15 21:33N 35°15' E 139°47'1110.5
2016-Jul-15 20:33N 35°05' E 139°42'24115.9
2016-Jul-15 05:23N 33°59' E 135°00'1619.6
2016-Jul-15 04:33N 34°15' E 134°59'1918.9
2016-Jul-15 03:33N 34°31' E 135°11'9 9.3
2016-Jul-15 02:32N 34°41' E 135°13'0 0.0
2016-Jul-15 01:32N 34°41' E 135°13'0 0.0
2016-Jul-15 00:20N 34°41' E 135°13'0 0.0
2016-Jul-14 23:20N 34°41' E 135°13'3 3.3
2016-Jul-14 22:34N 34°39' E 135°16'  

Dump ship's entire track history